createdAt,value
2017-05-06T00:00:22.051Z,65.58
2017-05-06T00:01:32.081Z,65.58
2017-05-06T00:02:42.470Z,65.78
2017-05-06T00:03:52.509Z,65.39
2017-05-06T00:05:02.851Z,65.49
2017-05-06T00:06:12.883Z,65.74
2017-05-06T00:07:22.951Z,65.39
2017-05-06T00:08:33.302Z,65.78
2017-05-06T00:09:43.035Z,65.65
2017-05-06T00:10:53.384Z,65.11
2017-05-06T00:12:03.738Z,65.58
2017-05-06T00:13:14.112Z,65.11
2017-05-06T00:14:24.458Z,65.39
2017-05-06T00:15:34.821Z,65.49
2017-05-06T00:16:44.552Z,65.58
2017-05-06T00:17:54.605Z,65.39
2017-05-06T00:19:04.627Z,65.58
2017-05-06T00:20:14.980Z,65.58
2017-05-06T00:21:25.356Z,65.58
2017-05-06T00:22:35.743Z,65.58
2017-05-06T00:23:46.133Z,65.49
2017-05-06T00:24:56.495Z,65.68
2017-05-06T00:26:06.537Z,65.39
2017-05-06T00:27:16.916Z,65.58
2017-05-06T00:28:27.269Z,65.49
2017-05-06T00:29:37.321Z,65.39
2017-05-06T00:30:47.048Z,65.2
2017-05-06T00:31:57.394Z,65.11
2017-05-06T00:33:07.748Z,65.11
2017-05-06T00:34:18.142Z,65.58
2017-05-06T00:35:28.487Z,65.49
2017-05-06T00:36:38.562Z,65.58
2017-05-06T00:37:48.938Z,65.68
2017-05-06T00:38:59.318Z,65.68
2017-05-06T00:40:09.038Z,65.49
2017-05-06T00:41:18.451Z,65.68
2017-05-06T00:42:28.793Z,65.49
2017-05-06T00:43:39.174Z,65.49
2017-05-06T00:44:49.205Z,65.49
2017-05-06T00:45:59.252Z,65.58
2017-05-06T00:47:09.606Z,65.49
2017-05-06T00:48:19.958Z,65.58
2017-05-06T00:49:29.983Z,65.58
2017-05-06T00:50:40.313Z,65.68
2017-05-06T00:51:50.650Z,65.68
2017-05-06T00:53:00.996Z,65.78
2017-05-06T00:54:11.344Z,65.74
2017-05-06T00:55:21.709Z,65.65
2017-05-06T00:56:32.073Z,65.84
2017-05-06T00:57:42.443Z,65.74
2017-05-06T00:58:52.801Z,65.65
2017-05-06T01:00:02.836Z,65.74
2017-05-06T01:01:13.193Z,65.65
2017-05-06T01:02:23.556Z,65.65
2017-05-06T01:03:33.906Z,65.45
2017-05-06T01:04:44.245Z,65.55
2017-05-06T01:05:54.301Z,65.74
2017-05-06T01:07:04.647Z,65.65
2017-05-06T01:08:14.688Z,65.84
2017-05-06T01:09:24.420Z,65.65
2017-05-06T01:10:34.131Z,65.45
2017-05-06T01:11:44.491Z,65.55
2017-05-06T01:12:54.843Z,65.36
2017-05-06T01:14:05.192Z,65.81
2017-05-06T01:15:15.535Z,65.55
2017-05-06T01:16:25.891Z,65.52
2017-05-06T01:17:35.991Z,65.84
2017-05-06T01:18:46.371Z,65.55
2017-05-06T01:19:56.414Z,65.52
2017-05-06T01:21:06.757Z,65.52
2017-05-06T01:22:17.100Z,65.45
2017-05-06T01:23:27.130Z,65.52
2017-05-06T01:24:37.478Z,65.33
2017-05-06T01:25:47.833Z,65.61
2017-05-06T01:26:58.184Z,65.33
2017-05-06T01:28:08.528Z,65.61
2017-05-06T01:29:18.867Z,65.52
2017-05-06T01:30:28.905Z,65.61
2017-05-06T01:31:39.258Z,65.52
2017-05-06T01:32:48.978Z,65.42
2017-05-06T01:33:59.026Z,65.52
2017-05-06T01:35:09.375Z,65.42
2017-05-06T01:36:19.419Z,65.71
2017-05-06T01:37:29.771Z,65.52
2017-05-06T01:38:40.125Z,65.61
2017-05-06T01:39:50.481Z,65.52
2017-05-06T01:41:00.841Z,65.42
2017-05-06T01:42:11.184Z,65.61
2017-05-06T01:43:21.558Z,65.61
2017-05-06T01:44:31.909Z,65.33
2017-05-06T01:45:42.248Z,65.23
2017-05-06T01:46:51.976Z,65.52
2017-05-06T01:48:02.344Z,65.52
2017-05-06T01:49:12.707Z,65.52
2017-05-06T01:50:22.739Z,65.71
2017-05-06T01:51:33.072Z,65.71
2017-05-06T01:52:43.484Z,65.71
2017-05-06T01:53:53.873Z,65.71
2017-05-06T01:55:04.222Z,65.71
2017-05-06T01:56:14.239Z,65.33
2017-05-06T01:57:24.620Z,65.61
2017-05-06T01:58:34.960Z,65.71
2017-05-06T01:59:45.321Z,65.71
2017-05-06T02:00:55.687Z,65.61
2017-05-06T02:02:06.036Z,65.52
2017-05-06T02:03:16.375Z,65.52
2017-05-06T02:04:26.779Z,65.71
2017-05-06T02:05:37.133Z,65.52
2017-05-06T02:06:47.488Z,65.2
2017-05-06T02:07:57.543Z,65.71
2017-05-06T02:09:07.892Z,65.58
2017-05-06T02:10:18.265Z,65.48
2017-05-06T02:11:28.323Z,65.48
2017-05-06T02:12:38.684Z,65.48
2017-05-06T02:13:49.069Z,65.39
2017-05-06T02:14:59.423Z,65.3
2017-05-06T02:16:09.441Z,65.3
2017-05-06T02:17:19.469Z,65.68
2017-05-06T02:18:29.830Z,65.68
2017-05-06T02:19:40.163Z,65.58
2017-05-06T02:20:50.532Z,65.48
2017-05-06T02:22:00.867Z,65.48
2017-05-06T02:23:11.237Z,65.48
2017-05-06T02:24:21.587Z,65.48
2017-05-06T02:25:31.936Z,65.48
2017-05-06T02:26:42.276Z,65.11
2017-05-06T02:27:52.646Z,65.01
2017-05-06T02:29:02.990Z,65.01
2017-05-06T02:30:13.351Z,65.58
2017-05-06T02:31:22.756Z,65.2
2017-05-06T02:32:33.119Z,65.58
2017-05-06T02:33:43.524Z,65.2
2017-05-06T02:34:53.570Z,65.3
2017-05-06T02:36:03.641Z,65.48
2017-05-06T02:37:14.000Z,65.2
2017-05-06T02:38:24.025Z,65.58
2017-05-06T02:39:34.379Z,65.58
2017-05-06T02:40:44.735Z,65.48
2017-05-06T02:41:55.078Z,65.39
2017-05-06T02:43:05.428Z,65.2
2017-05-06T02:44:15.772Z,65.01
2017-05-06T02:45:26.117Z,65.01
2017-05-06T02:46:36.470Z,65.11
2017-05-06T02:47:46.521Z,65.2
2017-05-06T02:48:56.893Z,65.2
2017-05-06T02:50:07.234Z,65.2
2017-05-06T02:51:17.585Z,65.2
2017-05-06T02:52:27.952Z,65.48
2017-05-06T02:53:38.030Z,65.01
2017-05-06T02:54:48.386Z,65.45
2017-05-06T02:55:58.416Z,65.17
2017-05-06T02:57:08.456Z,65.64
2017-05-06T02:58:18.523Z,65.26
2017-05-06T02:59:28.877Z,65.26
2017-05-06T03:00:38.915Z,65.58
2017-05-06T03:01:48.957Z,65.55
2017-05-06T03:32:59.317Z,62.62
2017-05-06T03:34:09.651Z,63.1
2017-05-06T03:35:19.984Z,64.34
2017-05-06T03:36:30.321Z,64.72
2017-05-06T03:37:40.676Z,64.81
2017-05-06T03:38:51.021Z,65.89
2017-05-06T03:40:01.360Z,65.8
2017-05-06T03:41:11.737Z,66.47
2017-05-06T03:42:22.092Z,66.47
2017-05-06T03:43:32.137Z,66.41
2017-05-06T03:44:42.180Z,66.31
2017-05-06T03:45:52.524Z,66.22
2017-05-06T03:47:02.869Z,66.25
2017-05-06T03:48:12.903Z,66.35
2017-05-06T03:49:22.934Z,66.19
2017-05-06T03:50:33.277Z,65.52
2017-05-06T03:51:43.629Z,65.9
2017-05-06T03:52:53.669Z,65.55
2017-05-06T03:54:04.021Z,65.45
2017-05-06T03:55:14.075Z,65.64
2017-05-06T03:56:24.421Z,65.64
2017-05-06T03:57:34.785Z,65.01
2017-05-06T03:58:45.129Z,65.2
2017-05-06T03:59:55.156Z,65.11
2017-05-06T04:01:05.195Z,65.3
2017-05-06T04:02:15.239Z,65.3
2017-05-06T04:03:25.608Z,65.2
2017-05-06T04:04:35.949Z,65.14
2017-05-06T04:05:46.300Z,65.23
2017-05-06T04:06:56.645Z,65.33
2017-05-06T04:08:06.981Z,65.42
2017-05-06T04:09:17.023Z,65.33
2017-05-06T04:10:27.384Z,65.23
2017-05-06T04:11:37.742Z,65.23
2017-05-06T04:12:48.106Z,65.33
2017-05-06T04:13:58.132Z,65.33
2017-05-06T04:15:08.483Z,65.33
2017-05-06T04:16:18.902Z,65.36
2017-05-06T04:17:29.246Z,65.08
2017-05-06T04:18:39.604Z,65.33
2017-05-06T04:19:49.980Z,65.14
2017-05-06T04:21:00.012Z,65.36
2017-05-06T04:22:10.040Z,65.36
2017-05-06T04:23:20.403Z,65.08
2017-05-06T04:24:30.771Z,64.98
2017-05-06T04:25:41.114Z,65.17
2017-05-06T04:26:51.452Z,65.45
2017-05-06T04:28:01.817Z,65.08
2017-05-06T04:29:12.177Z,65.26
2017-05-06T04:30:22.531Z,65.26
2017-05-06T04:31:32.890Z,65.17
2017-05-06T04:32:42.950Z,65.26
2017-05-06T04:33:53.307Z,65.17
2017-05-06T04:35:03.697Z,65.36
2017-05-06T04:36:13.731Z,65.26
2017-05-06T04:37:24.076Z,65.36
2017-05-06T04:38:34.442Z,65.65
2017-05-06T04:39:44.792Z,65.36
2017-05-06T04:40:55.126Z,65.78
2017-05-06T04:42:05.172Z,65.39
2017-05-06T04:43:15.535Z,65.58
2017-05-06T04:44:25.251Z,65.58
2017-05-06T04:45:35.280Z,65.2
2017-05-06T04:46:45.334Z,65.3
2017-05-06T04:47:55.383Z,65.01
2017-05-06T04:49:05.727Z,65.11
2017-05-06T04:50:16.114Z,65.2
2017-05-06T04:51:26.692Z,64.72
2017-05-06T04:52:36.764Z,64.56
2017-05-06T04:53:46.790Z,63.89
2017-05-06T04:54:56.846Z,63.64
2017-05-06T04:56:07.202Z,63.48
2017-05-06T04:57:17.554Z,62.55
2017-05-06T04:58:27.893Z,61.75
2017-05-06T04:59:38.237Z,61.11
2017-05-06T05:00:48.590Z,61.14
2017-05-06T05:01:58.935Z,60.85
2017-05-06T05:03:08.661Z,60.78
2017-05-06T05:04:19.005Z,60.81
2017-05-06T05:05:28.717Z,60.52
2017-05-06T05:06:39.044Z,60.75
2017-05-06T05:07:49.116Z,60.84
2017-05-06T05:08:58.858Z,61.32
2017-05-06T05:10:09.213Z,61.8
2017-05-06T05:11:19.572Z,62.38
2017-05-06T05:12:29.623Z,63.22
2017-05-06T05:13:39.360Z,63.51
2017-05-06T05:14:49.731Z,63.31
2017-05-06T05:16:00.083Z,62.26
2017-05-06T05:17:10.426Z,62.09
2017-05-06T05:18:20.455Z,61.83
2017-05-06T05:19:30.816Z,62.12
2017-05-06T05:20:41.154Z,62.32
2017-05-06T05:21:50.866Z,62.6
2017-05-06T05:23:00.892Z,63.44
2017-05-06T05:24:10.918Z,63.51
2017-05-06T05:25:20.951Z,63.51
2017-05-06T05:26:31.297Z,63.99
2017-05-06T05:27:41.669Z,63.89
2017-05-06T05:28:51.711Z,63.95
2017-05-06T05:30:02.152Z,64.15
2017-05-06T05:31:12.514Z,64.53
2017-05-06T05:32:22.884Z,64.02
2017-05-06T05:33:33.228Z,64.22
2017-05-06T05:34:43.567Z,64.31
2017-05-06T05:35:53.923Z,64.22
2017-05-06T05:37:03.964Z,64.02
2017-05-06T05:38:14.314Z,64.31
2017-05-06T05:39:24.353Z,64.12
2017-05-06T05:40:34.704Z,63.92
2017-05-06T05:41:44.723Z,64.5
2017-05-06T05:42:54.758Z,64.37
2017-05-06T05:44:04.792Z,64.28
2017-05-06T05:45:15.147Z,64.09
2017-05-06T05:46:25.497Z,64.28
2017-05-06T05:47:35.848Z,63.99
2017-05-06T05:48:45.916Z,64.47
2017-05-06T05:49:56.262Z,64.56
2017-05-06T05:51:06.306Z,63.79
2017-05-06T05:52:16.651Z,63.7
2017-05-06T05:53:26.984Z,64.37
2017-05-06T05:54:37.334Z,63.99
2017-05-06T05:55:47.359Z,63.79
2017-05-06T05:56:57.733Z,63.99
2017-05-06T05:58:08.083Z,63.41
2017-05-06T05:59:18.106Z,63.6
2017-05-06T06:00:28.484Z,63.54
2017-05-06T06:01:38.832Z,63.54
2017-05-06T06:02:49.173Z,63.15
2017-05-06T06:03:59.509Z,63.25
2017-05-06T06:05:09.532Z,63.38
2017-05-06T06:06:19.873Z,63.38
2017-05-06T06:07:30.211Z,63.48
2017-05-06T06:08:40.572Z,63.18
2017-05-06T06:09:50.949Z,63.18
2017-05-06T06:11:01.329Z,63.28
2017-05-06T06:12:11.365Z,63.38
2017-05-06T06:13:21.702Z,63.38
2017-05-06T06:14:32.044Z,63.38
2017-05-06T06:15:42.387Z,63.28
2017-05-06T06:16:52.421Z,63.18
2017-05-06T06:18:02.474Z,62.93
2017-05-06T06:19:12.524Z,63.12
2017-05-06T06:20:22.902Z,62.74
2017-05-06T06:21:33.270Z,62.16
2017-05-06T06:22:43.298Z,62.35
2017-05-06T06:23:53.653Z,63.12
2017-05-06T06:25:04.022Z,62.77
2017-05-06T06:26:14.388Z,62.87
2017-05-06T06:27:24.741Z,62.87
2017-05-06T06:28:35.092Z,63.06
2017-05-06T06:29:45.432Z,62.57
2017-05-06T06:30:55.795Z,62.7
2017-05-06T06:32:06.165Z,62.12
2017-05-06T06:33:16.231Z,61.77
2017-05-06T06:34:26.637Z,61.96
2017-05-06T06:35:36.974Z,61.96
2017-05-06T06:36:46.715Z,61.96
2017-05-06T06:37:57.336Z,62.25
2017-05-06T06:39:07.695Z,62.25
2017-05-06T06:40:17.751Z,62.63
2017-05-06T06:41:28.097Z,62.45
2017-05-06T06:42:38.457Z,63.21
2017-05-06T06:43:48.822Z,63.38
2017-05-06T06:44:59.192Z,63.76
2017-05-06T06:46:09.565Z,63.76
2017-05-06T06:47:19.908Z,63.67
2017-05-06T06:48:29.965Z,63.67
2017-05-06T06:49:40.320Z,63.64
2017-05-06T06:50:50.686Z,63.73
2017-05-06T06:52:00.719Z,63.67
2017-05-06T06:53:11.069Z,63.64
2017-05-06T06:54:21.451Z,63.73
2017-05-06T06:55:31.487Z,63.44
2017-05-06T06:56:41.540Z,63.57
2017-05-06T06:57:51.578Z,63.57
2017-05-06T06:59:01.925Z,63.34
2017-05-06T07:00:12.272Z,63.54
2017-05-06T07:01:22.287Z,63.28
2017-05-06T07:02:32.654Z,63.67
2017-05-06T07:03:43.010Z,63.28
2017-05-06T07:04:53.348Z,63.47
2017-05-06T07:06:03.714Z,63.57
2017-05-06T07:07:13.755Z,63.76
2017-05-06T07:08:24.123Z,63.67
2017-05-06T07:09:34.465Z,63.85
2017-05-06T07:10:44.500Z,63.67
2017-05-06T07:11:54.238Z,63.18
2017-05-06T07:13:04.282Z,63.57
2017-05-06T07:14:14.647Z,63.57
2017-05-06T07:15:24.684Z,63.6
2017-05-06T07:16:35.044Z,63.41
2017-05-06T07:17:45.386Z,62.73
2017-05-06T07:18:55.468Z,62.93
2017-05-06T07:20:05.835Z,62.93
2017-05-06T07:21:15.928Z,62.83
2017-05-06T07:22:26.306Z,62.96
2017-05-06T07:23:36.652Z,62.93
2017-05-06T07:24:46.993Z,63.06
2017-05-06T07:25:57.049Z,63.24
2017-05-06T07:27:07.393Z,63.24
2017-05-06T07:28:17.763Z,62.96
2017-05-06T07:29:28.110Z,63.15
2017-05-06T07:30:38.481Z,62.96
2017-05-06T07:31:48.220Z,63.15
2017-05-06T07:32:58.596Z,63.63
2017-05-06T07:34:08.947Z,63.44
2017-05-06T07:35:18.675Z,63.47
2017-05-06T07:36:29.017Z,63.57
2017-05-06T07:37:39.059Z,63.47
2017-05-06T07:38:49.405Z,63.67
2017-05-06T07:39:59.140Z,63.67
2017-05-06T07:41:09.183Z,63.37
2017-05-06T07:42:19.534Z,63.76
2017-05-06T07:43:29.888Z,63.76
2017-05-06T07:44:40.261Z,63.76
2017-05-06T07:45:50.304Z,63.76
2017-05-06T07:47:00.706Z,63.85
2017-05-06T07:48:11.058Z,63.76
2017-05-06T07:49:20.772Z,63.67
2017-05-06T07:50:31.120Z,63.57
2017-05-06T07:51:41.153Z,63.7
2017-05-06T07:52:51.523Z,63.7
2017-05-06T07:54:01.228Z,63.6
2017-05-06T07:55:11.600Z,63.7
2017-05-06T07:56:21.979Z,63.4
2017-05-06T07:57:32.337Z,63.7
2017-05-06T07:58:42.700Z,63.7
2017-05-06T07:59:52.766Z,63.7
2017-05-06T08:01:03.129Z,63.4
2017-05-06T08:02:13.171Z,63.4
2017-05-06T08:03:23.533Z,63.63
2017-05-06T08:04:33.573Z,63.43
2017-05-06T08:05:43.927Z,62.86
2017-05-06T08:06:54.285Z,63.34
2017-05-06T08:08:04.646Z,63.43
2017-05-06T08:09:14.681Z,63.34
2017-05-06T08:10:24.718Z,62.95
2017-05-06T08:11:35.074Z,63.34
2017-05-06T08:12:45.149Z,62.86
2017-05-06T08:13:55.509Z,63.37
2017-05-06T08:15:05.586Z,62.57
2017-05-06T08:16:15.947Z,63.37
2017-05-06T08:17:25.663Z,63.28
2017-05-06T08:18:36.012Z,62.5
2017-05-06T08:19:46.072Z,62.89
2017-05-06T08:20:56.430Z,62.98
2017-05-06T08:22:06.789Z,62.6
2017-05-06T08:23:17.148Z,62.89
2017-05-06T08:24:27.504Z,62.4
2017-05-06T08:25:37.861Z,62.73
2017-05-06T08:26:48.211Z,62.92
2017-05-06T08:27:58.571Z,63.02
2017-05-06T08:29:08.850Z,63.02
2017-05-06T08:30:19.192Z,62.34
2017-05-06T08:31:29.554Z,62.73
2017-05-06T08:32:39.610Z,62.82
2017-05-06T08:33:49.666Z,63.66
2017-05-06T08:35:00.032Z,63.56
2017-05-06T08:36:10.390Z,62.89
2017-05-06T08:37:20.443Z,62.63
2017-05-06T08:38:30.802Z,62.82
2017-05-06T08:39:41.197Z,62.76
2017-05-06T08:40:51.253Z,62.47
2017-05-06T08:42:01.617Z,62.59
2017-05-06T08:43:11.979Z,62.01
2017-05-06T08:44:21.722Z,62.11
2017-05-06T08:45:32.065Z,61.36
2017-05-06T08:46:42.107Z,61.4
2017-05-06T08:47:52.145Z,61.59
2017-05-06T08:49:02.515Z,61.43
2017-05-06T08:50:12.861Z,60.94
2017-05-06T08:51:23.217Z,61.52
2017-05-06T08:52:33.575Z,61.43
2017-05-06T08:53:43.954Z,61.91
2017-05-06T08:54:53.994Z,62.56
2017-05-06T08:56:04.354Z,63.04
2017-05-06T08:57:14.719Z,63.11
2017-05-06T08:58:25.075Z,63.69
2017-05-06T08:59:35.123Z,63.85
2017-05-06T09:00:45.516Z,63.66
2017-05-06T09:01:55.871Z,64.11
2017-05-06T09:03:06.222Z,63.73
2017-05-06T09:04:16.269Z,63.56
2017-05-06T09:05:26.641Z,62.59
2017-05-06T09:06:36.994Z,62.72
2017-05-06T09:07:47.345Z,62.53
2017-05-06T09:08:57.704Z,62.66
2017-05-06T09:10:07.763Z,62.37
2017-05-06T09:11:18.113Z,62.59
2017-05-06T09:12:27.833Z,62.59
2017-05-06T09:13:38.191Z,62.75
2017-05-06T09:14:48.267Z,62.75
2017-05-06T09:15:58.639Z,63.04
2017-05-06T09:17:08.689Z,62.95
2017-05-06T09:18:18.724Z,63.04
2017-05-06T09:19:28.780Z,62.85
2017-05-06T09:20:38.833Z,62.95
2017-05-06T09:21:49.196Z,62.66
2017-05-06T09:22:59.560Z,62.85
2017-05-06T09:24:09.598Z,63.04
2017-05-06T09:25:19.954Z,62.95
2017-05-06T09:26:30.310Z,62.56
2017-05-06T09:27:40.344Z,62.56
2017-05-06T09:28:50.724Z,62.66
2017-05-06T09:30:01.089Z,63.34
2017-05-06T09:31:10.817Z,63.31
2017-05-06T09:32:21.195Z,63.49
2017-05-06T09:33:31.547Z,63.01
2017-05-06T09:34:41.598Z,62.92
2017-05-06T09:35:52.180Z,62.82
2017-05-06T09:37:02.211Z,63.11
2017-05-06T09:38:12.586Z,62.95
2017-05-06T09:39:22.624Z,62.72
2017-05-06T09:40:32.986Z,63.4
2017-05-06T09:41:43.031Z,62.92
2017-05-06T09:42:53.069Z,63.49
2017-05-06T09:44:03.107Z,63.69
2017-05-06T09:45:13.454Z,63.89
2017-05-06T09:46:23.811Z,63.79
2017-05-06T09:47:33.851Z,63.31
2017-05-06T09:48:44.207Z,63.49
2017-05-06T09:49:54.249Z,62.95
2017-05-06T09:51:04.300Z,62.85
2017-05-06T09:52:14.325Z,62.66
2017-05-06T09:53:24.370Z,62.95
2017-05-06T09:54:34.421Z,62.66
2017-05-06T09:55:44.175Z,62.85
2017-05-06T09:56:54.220Z,62.66
2017-05-06T09:58:04.582Z,63.17
2017-05-06T09:59:14.629Z,62.95
2017-05-06T10:00:24.681Z,62.98
2017-05-06T10:01:35.031Z,63.07
2017-05-06T10:02:45.080Z,63.07
2017-05-06T10:03:55.455Z,62.59
2017-05-06T10:05:05.812Z,62.59
2017-05-06T10:06:16.172Z,63.07
2017-05-06T10:07:26.225Z,62.98
2017-05-06T10:08:36.602Z,62.98
2017-05-06T10:09:46.971Z,62.79
2017-05-06T10:10:57.357Z,62.98
2017-05-06T10:12:07.732Z,62.98
2017-05-06T10:13:18.078Z,62.79
2017-05-06T10:14:28.457Z,62.88
2017-05-06T10:15:38.822Z,62.79
2017-05-06T10:16:49.183Z,62.88
2017-05-06T10:17:59.536Z,62.98
2017-05-06T10:19:09.280Z,63.17
2017-05-06T10:20:19.648Z,63.07
2017-05-06T10:21:30.018Z,63.07
2017-05-06T10:22:40.424Z,62.62
2017-05-06T10:23:50.150Z,62.72
2017-05-06T10:25:00.509Z,62.52
2017-05-06T10:26:10.257Z,62.62
2017-05-06T10:27:20.614Z,62.52
2017-05-06T10:28:30.979Z,62.43
2017-05-06T10:29:41.329Z,62.91
2017-05-06T10:30:51.692Z,62.82
2017-05-06T10:32:01.739Z,63.78
2017-05-06T10:33:11.781Z,63.75
2017-05-06T10:34:22.141Z,62.98
2017-05-06T10:35:32.499Z,63.2
2017-05-06T10:36:42.858Z,62.91
2017-05-06T10:37:53.232Z,62.82
2017-05-06T10:39:03.572Z,62.62
2017-05-06T10:40:13.614Z,62.75
2017-05-06T10:41:24.000Z,62.85
2017-05-06T10:42:34.403Z,62.55
2017-05-06T10:43:44.451Z,62.01
2017-05-06T10:44:54.805Z,61.91
2017-05-06T10:46:05.203Z,62.68
2017-05-06T10:47:15.572Z,62.59
2017-05-06T10:48:25.954Z,62.98
2017-05-06T10:49:36.326Z,62.59
2017-05-06T10:50:45.745Z,62.1
2017-05-06T10:51:56.104Z,62.52
2017-05-06T10:53:06.454Z,62.32
2017-05-06T10:54:16.496Z,62.71
2017-05-06T10:55:26.846Z,61.65
2017-05-06T10:56:37.200Z,61.77
2017-05-06T10:57:47.571Z,62.26
2017-05-06T10:58:57.938Z,62.04
2017-05-06T11:00:08.309Z,61.87
2017-05-06T11:01:18.365Z,61.58
2017-05-06T11:02:28.086Z,61.48
2017-05-06T11:03:38.446Z,61.71
2017-05-06T11:04:48.807Z,61.61
2017-05-06T11:05:59.156Z,62.38
2017-05-06T11:07:09.206Z,63.13
2017-05-06T11:08:19.272Z,63.2
2017-05-06T11:09:29.629Z,63.2
2017-05-06T11:10:39.998Z,62.42
2017-05-06T11:11:50.031Z,62.42
2017-05-06T11:13:00.401Z,61.97
2017-05-06T11:14:10.769Z,62.55
2017-05-06T11:15:20.812Z,62.74
2017-05-06T11:16:30.854Z,62.16
2017-05-06T11:17:41.204Z,62.26
2017-05-06T11:18:51.265Z,62.35
2017-05-06T11:20:01.632Z,62.55
2017-05-06T11:21:11.987Z,61.9
2017-05-06T11:22:22.341Z,61.8
2017-05-06T11:23:32.734Z,61.51
2017-05-06T11:24:43.104Z,61.8
2017-05-06T11:25:53.186Z,61.35
2017-05-06T11:27:03.537Z,62.13
2017-05-06T11:28:13.577Z,61.93
2017-05-06T11:29:23.951Z,61.35
2017-05-06T11:30:34.321Z,61.47
2017-05-06T11:31:44.400Z,61.67
2017-05-06T11:32:53.816Z,60.92
2017-05-06T11:34:03.848Z,60.95
2017-05-06T11:35:13.899Z,60.95
2017-05-06T11:36:23.969Z,61.24
2017-05-06T11:37:34.380Z,61.63
2017-05-06T11:38:44.422Z,61.54
2017-05-06T11:39:54.472Z,61.24
2017-05-06T11:41:04.517Z,61.34
2017-05-06T11:42:14.890Z,61.73
2017-05-06T11:43:25.252Z,62.51
2017-05-06T11:44:35.620Z,62.87
2017-05-06T11:45:46.009Z,62.67
2017-05-06T11:46:56.364Z,62.38
2017-05-06T11:48:06.721Z,62.96
2017-05-06T11:49:17.077Z,63.03
2017-05-06T11:50:27.132Z,63
2017-05-06T11:51:37.486Z,62.81
2017-05-06T11:52:47.523Z,63.29
2017-05-06T11:53:57.880Z,62.81
2017-05-06T11:55:08.232Z,63.1
2017-05-06T11:56:18.606Z,62.16
2017-05-06T11:57:29.018Z,62.61
2017-05-06T11:58:39.409Z,62.54
2017-05-06T11:59:49.451Z,62.54
2017-05-06T12:00:59.825Z,62.26
2017-05-06T12:02:10.181Z,62.35
2017-05-06T12:03:20.546Z,62.54
2017-05-06T12:04:30.896Z,61.87
2017-05-06T12:05:41.263Z,61.6
2017-05-06T12:06:51.648Z,61.9
2017-05-06T12:08:02.019Z,62.77
2017-05-06T12:09:12.380Z,62.38
2017-05-06T12:10:21.798Z,62.64
2017-05-06T12:11:32.166Z,62.74
2017-05-06T12:12:42.540Z,61.99
2017-05-06T12:13:52.904Z,61.7
2017-05-06T12:15:03.259Z,61.99
2017-05-06T12:16:13.606Z,62.29
2017-05-06T12:17:23.658Z,62.45
2017-05-06T12:18:33.703Z,62.29
2017-05-06T12:19:44.082Z,62.45
2017-05-06T12:20:54.457Z,62.64
2017-05-06T12:22:04.491Z,62.74
2017-05-06T12:23:14.840Z,62.45
2017-05-06T12:24:25.221Z,62.57
2017-05-06T12:25:35.591Z,62.77
2017-05-06T12:26:45.977Z,62.77
2017-05-06T12:27:56.329Z,62.38
2017-05-06T12:29:06.375Z,62.57
2017-05-06T12:30:16.731Z,63.06
2017-05-06T12:31:27.111Z,62.84
2017-05-06T12:32:37.474Z,63.16
2017-05-06T12:33:47.834Z,62.77
2017-05-06T12:34:58.192Z,62.87
2017-05-06T12:36:08.569Z,63.45
2017-05-06T12:37:18.919Z,63.23
2017-05-06T12:38:29.280Z,62.93
2017-05-06T12:39:39.651Z,63.42
2017-05-06T12:40:49.996Z,63.42
2017-05-06T12:42:00.049Z,63.03
2017-05-06T12:43:10.098Z,63.42
2017-05-06T12:44:20.446Z,63.29
2017-05-06T12:45:30.506Z,63.2
2017-05-06T12:46:40.555Z,63.2
2017-05-06T12:47:50.635Z,63
2017-05-06T12:49:01.005Z,63.2
2017-05-06T12:50:10.726Z,63.39
2017-05-06T12:51:21.082Z,63.39
2017-05-06T12:52:30.810Z,63.29
2017-05-06T12:53:41.178Z,63.2
2017-05-06T12:54:51.535Z,63.39
2017-05-06T12:56:01.588Z,64.14
2017-05-06T12:57:11.954Z,64.11
2017-05-06T12:58:22.033Z,63.32
2017-05-06T12:59:32.395Z,63.26
2017-05-06T13:00:42.758Z,63.07
2017-05-06T13:01:52.790Z,62.77
2017-05-06T13:03:03.163Z,62.77
2017-05-06T13:04:13.555Z,63.1
2017-05-06T13:05:23.605Z,62.71
2017-05-06T13:06:33.645Z,62.61
2017-05-06T13:07:44.013Z,62.32
2017-05-06T13:08:54.356Z,61.96
2017-05-06T13:10:04.717Z,61.47
2017-05-06T13:11:15.085Z,61.9
2017-05-06T13:12:25.137Z,61.57
2017-05-06T13:13:35.182Z,61.41
2017-05-06T13:14:45.539Z,61.7
2017-05-06T13:15:55.894Z,61.7
2017-05-06T13:17:06.252Z,61.93
2017-05-06T13:18:16.633Z,61.8
2017-05-06T13:19:26.716Z,62.38
2017-05-06T13:20:37.062Z,63.03
2017-05-06T13:21:47.123Z,62.81
2017-05-06T13:22:57.496Z,63.2
2017-05-06T13:24:07.884Z,62.81
2017-05-06T13:25:18.276Z,61.96
2017-05-06T13:26:28.342Z,62.45
2017-05-06T13:27:38.723Z,62.54
2017-05-06T13:28:48.795Z,63.32
2017-05-06T13:29:59.153Z,63.84
2017-05-06T13:31:09.502Z,64.23
2017-05-06T13:32:19.872Z,64.69
2017-05-06T13:33:30.232Z,64.4
2017-05-06T13:34:40.272Z,63.98
2017-05-06T13:35:50.670Z,63.13
2017-05-06T13:37:01.047Z,63.17
2017-05-06T13:38:11.079Z,63.94
2017-05-06T13:39:21.483Z,64.2
2017-05-06T13:40:31.849Z,64.11
2017-05-06T13:41:42.202Z,63.98
2017-05-06T13:42:52.550Z,63.42
2017-05-06T13:44:02.592Z,62.94
2017-05-06T13:45:12.946Z,63.26
2017-05-06T13:46:23.319Z,62.77
2017-05-06T13:47:33.688Z,63.17
2017-05-06T13:48:44.058Z,62.97
2017-05-06T13:49:54.414Z,63.17
2017-05-06T13:51:04.806Z,62.77
2017-05-06T13:52:14.864Z,62.81
2017-05-06T13:53:25.205Z,62.61
2017-05-06T13:54:35.261Z,62.32
2017-05-06T13:55:45.665Z,62.41
2017-05-06T13:56:56.030Z,62.54
2017-05-06T13:58:06.061Z,62.16
2017-05-06T13:59:16.109Z,62.45
2017-05-06T14:00:26.446Z,62.74
2017-05-06T14:01:36.482Z,62.84
2017-05-06T14:02:46.862Z,62.93
2017-05-06T14:03:57.211Z,62.84
2017-05-06T14:05:07.248Z,63.23
2017-05-06T14:06:17.617Z,63.23
2017-05-06T14:07:27.974Z,62.84
2017-05-06T14:08:38.343Z,63.23
2017-05-06T14:09:48.395Z,63.49
2017-05-06T14:10:58.767Z,63.59
2017-05-06T14:12:08.799Z,63.29
2017-05-06T14:13:19.150Z,64.17
2017-05-06T14:14:29.522Z,63.68
2017-05-06T14:15:39.869Z,63.97
2017-05-06T14:16:50.240Z,63.97
2017-05-06T14:18:00.591Z,63.94
2017-05-06T14:19:10.648Z,63.97
2017-05-06T14:20:21.015Z,64.07
2017-05-06T14:21:31.055Z,64.14
2017-05-06T14:22:41.137Z,63.84
2017-05-06T14:23:51.501Z,64.17
2017-05-06T14:25:01.873Z,63.97
2017-05-06T14:26:12.230Z,64.17
2017-05-06T14:27:22.599Z,64.07
2017-05-06T14:28:33.001Z,63.87
2017-05-06T14:29:43.380Z,64.04
2017-05-06T14:30:53.436Z,63.97
2017-05-06T14:32:03.812Z,64.07
2017-05-06T14:33:14.204Z,63.84
2017-05-06T14:34:24.301Z,64.14
2017-05-06T14:35:34.342Z,64.14
2017-05-06T14:36:44.076Z,64.04
2017-05-06T14:37:54.120Z,64.04
2017-05-06T14:39:04.472Z,64.33
2017-05-06T14:40:14.828Z,63.84
2017-05-06T14:41:25.182Z,64.23
2017-05-06T14:42:35.548Z,63.87
2017-05-06T14:43:45.917Z,63.75
2017-05-06T14:44:55.966Z,64.14
2017-05-06T14:46:06.328Z,63.84
2017-05-06T14:47:16.661Z,63.94
2017-05-06T14:48:27.025Z,64.04
2017-05-06T14:49:37.373Z,64.23
2017-05-06T14:50:47.432Z,64.23
2017-05-06T14:51:57.805Z,64.14
2017-05-06T14:53:08.168Z,64.04
2017-05-06T14:54:18.229Z,64.14
2017-05-06T14:55:28.266Z,64.14
2017-05-06T14:56:37.993Z,64.2
2017-05-06T14:57:48.066Z,64.2
2017-05-06T14:58:58.101Z,64.2
2017-05-06T15:00:08.467Z,64.01
2017-05-06T15:01:18.832Z,64.3
2017-05-06T15:02:29.189Z,64.01
2017-05-06T15:03:39.254Z,63.71
2017-05-06T15:04:48.991Z,63.91
2017-05-06T15:05:59.334Z,64.11
2017-05-06T15:07:09.388Z,63.71
2017-05-06T15:08:19.437Z,64.2
2017-05-06T15:09:29.811Z,63.81
2017-05-06T15:10:40.168Z,63.88
2017-05-06T15:11:50.527Z,64.17
2017-05-06T15:13:00.877Z,64.3
2017-05-06T15:14:10.922Z,63.88
2017-05-06T15:15:21.287Z,64.2
2017-05-06T15:16:31.688Z,64.11
2017-05-06T15:17:42.051Z,64.2
2017-05-06T15:18:52.421Z,64.17
2017-05-06T15:20:02.173Z,64.65
2017-05-06T15:21:12.543Z,64.56
2017-05-06T15:22:22.612Z,64.65
2017-05-06T15:23:32.682Z,64.75
2017-05-06T15:24:42.748Z,64.65
2017-05-06T15:25:53.118Z,64.65
2017-05-06T15:27:03.168Z,64.75
2017-05-06T15:28:13.528Z,64.46
2017-05-06T15:29:23.889Z,64.46
2017-05-06T15:30:34.236Z,64.46
2017-05-06T15:31:44.289Z,64.26
2017-05-06T15:32:54.040Z,64.46
2017-05-06T15:34:04.436Z,65.01
2017-05-06T15:35:14.845Z,65.01
2017-05-06T15:36:25.221Z,64.62
2017-05-06T15:37:35.294Z,64.72